Time;durP1;ratioP1;P1;durP2;ratioP2;P2;SDS_P1;SDS_P2;PMS_P1;PMS_P2;Temp;Humidity;BMP_temperature;BMP_pressure;BME280_temperature;BME280_humidity;BME280_pressure;Samples;Min_cycle;Max_cycle;Signal;HPM_P1;HPM_P2
2023/02/02 00:01:51;;;;;;;24.13;10.98;;;;;;;0.68;67.56;99016.25;6136641;23;20017;-80
2023/02/02 00:04:26;;;;;;;23.05;10.35;;;;;;;0.71;67.15;99022.28;6133109;23;20009;-78
2023/02/02 00:06:53;;;;;;;22.83;10.73;;;;;;;0.66;67.08;99017.94;6106475;23;20454;-79
2023/02/02 00:09:19;;;;;;;24.10;10.93;;;;;;;0.49;66.88;99007.34;6124953;23;20056;-80
2023/02/02 00:11:47;;;;;;;24.30;10.73;;;;;;;0.42;67.07;98984.22;6177240;23;20014;-80
2023/02/02 00:14:14;;;;;;;24.55;11.10;;;;;;;0.47;67.32;98986.88;6167306;23;20017;-80
2023/02/02 00:16:51;;;;;;;28.60;11.10;;;;;;;0.67;67.46;99019.66;6173283;23;20025;-80
2023/02/02 00:19:21;;;;;;;24.23;11.30;;;;;;;0.65;66.53;99024.75;6157451;23;20021;-79
2023/02/02 00:21:47;;;;;;;21.63;9.40;;;;;;;0.64;66.54;99011.91;6181677;23;20032;-79
2023/02/02 00:24:18;;;;;;;22.00;10.20;;;;;;;0.50;67.40;98991.16;6153014;23;20028;-79
2023/02/02 00:26:47;;;;;;;23.17;10.32;;;;;;;0.52;67.02;98985.25;6153303;23;20013;-79
2023/02/02 00:29:17;;;;;;;26.10;10.98;;;;;;;0.44;67.04;98979.13;6178902;23;20017;-78
2023/02/02 00:31:47;;;;;;;27.20;11.32;;;;;;;0.53;66.91;99002.34;6156789;23;20416;-79
2023/02/02 00:34:14;;;;;;;25.75;11.02;;;;;;;0.51;66.83;99005.69;6157361;23;20021;-80
2023/02/02 00:36:42;;;;;;;25.30;11.25;;;;;;;0.32;66.90;98971.22;6130758;23;20475;-80
2023/02/02 00:39:10;;;;;;;26.38;11.27;;;;;;;0.57;66.36;99010.94;6130788;23;20017;-79
2023/02/02 00:41:36;;;;;;;21.75;10.63;;;;;;;0.49;66.98;98987.75;6156446;23;20332;-80
2023/02/02 00:46:46;;;;;;;24.15;10.88;;;;;;;0.52;66.77;99013.41;6156496;23;20017;-79
2023/02/02 00:49:12;;;;;;;25.35;11.13;;;;;;;0.23;67.03;98959.97;6129754;23;20029;-79
2023/02/02 00:51:38;;;;;;;26.42;10.80;;;;;;;0.32;67.11;98976.34;6156054;23;20013;-80
2023/02/02 00:54:05;;;;;;;27.17;11.90;;;;;;;0.51;67.43;99004.00;6154141;23;20427;-78
2023/02/02 00:56:31;;;;;;;27.75;10.75;;;;;;;0.29;66.74;98959.22;6155283;23;20486;-81
2023/02/02 00:58:57;;;;;;;26.52;11.38;;;;;;;0.49;67.16;99005.69;6154721;23;20048;-80
2023/02/02 01:01:24;;;;;;;28.60;11.40;;;;;;;0.17;66.89;98972.63;6129807;23;20014;-80
2023/02/02 01:03:51;;;;;;;27.42;12.15;;;;;;;0.20;66.88;98997.44;6155392;23;20048;-80
2023/02/02 01:06:18;;;;;;;29.48;11.95;;;;;;;0.23;66.60;99010.25;6130309;23;20021;-80
2023/02/02 01:08:45;;;;;;;28.02;12.27;;;;;;;0.00;66.95;98979.97;6129604;23;20025;-80
2023/02/02 01:11:11;;;;;;;27.60;11.40;;;;;;;0.04;67.09;98998.81;6154968;23;20043;-78
2023/02/02 01:13:37;;;;;;;32.78;11.95;;;;;;;-0.39;66.79;98939.94;6128928;23;20367;-80
2023/02/02 01:16:04;;;;;;;34.67;12.77;;;;;;;-0.07;67.08;98996.03;6130986;23;20021;-80
2023/02/02 01:18:31;;;;;;;30.65;13.20;;;;;;;0.08;67.47;99005.72;6158484;23;20021;-80
2023/02/02 01:21:04;;;;;;;27.48;11.75;;;;;;;0.16;67.51;99008.44;6161771;23;20028;-79
2023/02/02 01:23:31;;;;;;;24.73;10.50;;;;;;;0.08;67.11;98992.94;6142932;23;20025;-79
2023/02/02 01:26:00;;;;;;;30.55;12.02;;;;;;;0.04;67.02;98984.31;6169724;23;20076;-79
2023/02/02 01:28:27;;;;;;;29.45;11.73;;;;;;;0.00;66.88;98995.34;6171393;23;20052;-79
2023/02/02 01:30:54;;;;;;;24.45;11.15;;;;;;;-0.09;67.55;98970.41;6155313;23;20091;-79
2023/02/02 01:33:21;;;;;;;28.65;11.57;;;;;;;-0.05;67.28;98972.19;6153821;23;20159;-81
2023/02/02 01:35:52;;;;;;;25.58;11.60;;;;;;;0.10;66.95;98998.94;6154643;23;20024;-79
2023/02/02 01:38:19;;;;;;;23.52;10.38;;;;;;;0.05;66.65;98998.81;6155497;23;20482;-79
2023/02/02 01:40:47;;;;;;;28.27;12.05;;;;;;;-0.10;67.26;98970.38;6154570;23;20044;-81
2023/02/02 01:43:27;;;;;;;24.90;11.63;;;;;;;-0.07;67.08;98978.13;6140220;23;20008;-80
2023/02/02 01:45:54;;;;;;;27.42;11.13;;;;;;;0.08;67.05;98998.03;6154789;23;20010;-80
2023/02/02 01:48:25;;;;;;;28.83;11.80;;;;;;;-0.04;66.83;98967.97;6149635;23;20028;-79
2023/02/02 01:50:54;;;;;;;25.75;12.05;;;;;;;0.20;67.25;98992.31;6108481;23;20018;-80
2023/02/02 01:53:21;;;;;;;31.90;12.63;;;;;;;0.09;67.68;98958.84;6157697;23;20498;-80
2023/02/02 01:55:48;;;;;;;26.17;11.85;;;;;;;0.14;66.71;98959.78;6132242;23;20027;-80
2023/02/02 01:58:23;;;;;;;30.15;12.60;;;;;;;0.33;67.40;98999.38;6154159;23;20021;-82
2023/02/02 02:00:52;;;;;;;29.23;11.55;;;;;;;0.15;67.16;98987.09;6154578;23;20367;-82
2023/02/02 02:03:21;;;;;;;30.83;12.80;;;;;;;0.19;66.92;98980.34;6129573;23;20049;-81
2023/02/02 02:06:04;;;;;;;31.52;12.32;;;;;;;0.25;67.81;98993.25;6106291;23;20021;-81
2023/02/02 02:08:53;;;;;;;30.13;12.43;;;;;;;0.27;66.83;98997.59;6105626;23;20049;-80
2023/02/02 02:11:20;;;;;;;27.45;12.20;;;;;;;0.24;67.67;98982.16;6154012;23;20013;-80
2023/02/02 02:17:30;;;;;;;35.60;12.77;;;;;;;0.37;67.63;99000.31;6134289;23;20431;-81
2023/02/02 02:26:58;;;;;;;29.27;12.32;;;;;;;0.39;66.76;98988.41;6129309;23;20014;-80
2023/02/02 02:29:52;;;;;;;30.83;13.48;;;;;;;0.41;67.47;98996.97;6130761;23;20268;-80
2023/02/02 02:32:52;;;;;;;31.17;13.45;;;;;;;0.44;66.98;98997.03;6132999;23;20024;-79
2023/02/02 02:35:28;;;;;;;30.25;11.70;;;;;;;0.40;67.22;99003.81;6136429;23;20100;-80
2023/02/02 02:38:23;;;;;;;35.63;13.07;;;;;;;0.39;66.79;99008.88;6131821;23;20028;-78
2023/02/02 02:41:14;;;;;;;33.83;13.10;;;;;;;0.35;67.06;99007.09;6146927;23;20359;-80
2023/02/02 02:43:50;;;;;;;32.03;12.65;;;;;;;0.32;67.23;98996.81;6152009;23;20021;-79
2023/02/02 02:46:19;;;;;;;33.85;13.75;;;;;;;0.21;67.19;98976.97;6109402;23;20021;-77
2023/02/02 02:48:45;;;;;;;29.48;13.38;;;;;;;0.52;67.23;99013.41;6156673;23;20018;-81
2023/02/02 02:51:48;;;;;;;30.35;12.18;;;;;;;0.55;67.11;99010.88;6156202;23;20029;-78
2023/02/02 02:54:33;;;;;;;30.55;12.90;;;;;;;0.22;66.85;98927.53;6162272;23;20021;-79
2023/02/02 02:57:18;;;;;;;29.50;12.95;;;;;;;0.67;66.89;99005.13;6133554;23;20017;-82
2023/02/02 03:00:22;;;;;;;32.00;12.88;;;;;;;0.72;67.23;99007.81;6132242;23;20073;-80
2023/02/02 03:02:48;;;;;;;32.05;13.05;;;;;;;0.73;66.46;99004.41;6159486;23;20084;-79
2023/02/02 03:05:31;;;;;;;32.38;13.20;;;;;;;0.64;66.72;98997.44;6157203;23;20025;-80
2023/02/02 03:08:10;;;;;;;32.72;12.55;;;;;;;0.72;67.08;99007.81;6132156;23;20072;-79
2023/02/02 03:10:40;;;;;;;28.85;11.63;;;;;;;0.73;66.57;99006.97;6172061;23;20025;-80
2023/02/02 03:13:09;;;;;;;25.45;11.63;;;;;;;0.52;66.05;98980.13;6155266;23;20014;-80
2023/02/02 03:15:35;;;;;;;29.77;12.73;;;;;;;0.52;67.09;98979.25;6142039;23;20025;-79
2023/02/02 03:18:01;;;;;;;32.92;13.13;;;;;;;0.77;66.62;99003.63;6130810;23;20018;-80
2023/02/02 03:20:27;;;;;;;32.17;12.30;;;;;;;0.83;66.31;99018.25;6133237;23;20017;-80
2023/02/02 03:22:53;;;;;;;30.35;12.43;;;;;;;0.68;66.53;98995.78;6159381;23;20021;-81
2023/02/02 03:25:20;;;;;;;33.08;12.95;;;;;;;0.73;66.12;99012.09;6157541;23;20017;-80
2023/02/02 03:27:46;;;;;;;29.23;13.20;;;;;;;0.55;65.99;99010.88;6133411;23;20017;-81
2023/02/02 03:30:13;;;;;;;31.67;12.70;;;;;;;0.57;66.92;99009.22;6137463;23;20044;-81
2023/02/02 03:32:39;;;;;;;29.98;12.82;;;;;;;0.51;66.29;99018.50;6164009;23;20016;-83
2023/02/02 03:35:06;;;;;;;29.33;12.05;;;;;;;0.56;66.66;99022.00;6114314;23;20521;-82
2023/02/02 03:37:32;;;;;;;28.73;12.27;;;;;;;0.42;66.24;98988.47;6161963;23;20160;-81
2023/02/02 03:39:59;;;;;;;30.00;13.07;;;;;;;0.47;65.83;99027.81;6160829;23;20021;-79
2023/02/02 03:42:26;;;;;;;31.02;13.75;;;;;;;0.32;66.16;99013.03;6158673;23;20028;-79
2023/02/02 03:44:52;;;;;;;31.95;12.63;;;;;;;0.32;66.37;99002.78;6159402;23;20103;-81
2023/02/02 03:47:18;;;;;;;26.92;12.10;;;;;;;0.37;66.66;99008.88;6109556;23;20101;-80
2023/02/02 03:49:44;;;;;;;29.77;12.05;;;;;;;0.37;65.94;99028.47;6165662;23;20394;-77
2023/02/02 03:52:10;;;;;;;27.85;12.40;;;;;;;0.21;66.08;99017.94;6135007;23;20049;-79
2023/02/02 03:54:37;;;;;;;30.33;11.73;;;;;;;0.08;66.20;98983.53;6152247;23;20094;-79
2023/02/02 03:57:03;;;;;;;27.98;12.13;;;;;;;0.19;66.22;99031.53;6152116;23;20018;-80
2023/02/02 03:59:29;;;;;;;28.83;12.20;;;;;;;0.12;66.24;99004.94;6128498;23;20025;-80
2023/02/02 04:01:55;;;;;;;30.48;12.68;;;;;;;0.12;66.29;99025.41;6127829;23;20028;-80
2023/02/02 04:04:21;;;;;;;33.25;13.52;;;;;;;0.11;66.40;99019.44;6129454;23;20546;-79
2023/02/02 04:06:47;;;;;;;28.60;12.93;;;;;;;0.01;66.32;99001.31;6129509;23;20104;-80
2023/02/02 04:09:13;;;;;;;28.65;12.77;;;;;;;-0.01;66.76;98981.66;6142014;23;20045;-78
2023/02/02 04:11:39;;;;;;;32.72;13.35;;;;;;;0.19;66.08;99004.22;6143353;23;20065;-79
2023/02/02 04:14:05;;;;;;;29.23;11.95;;;;;;;0.21;65.82;99015.38;6141099;23;20109;-80
2023/02/02 04:16:34;;;;;;;32.35;12.65;;;;;;;0.03;65.55;99002.19;6133347;23;20024;-80
2023/02/02 04:19:00;;;;;;;26.88;12.15;;;;;;;0.22;66.34;99029.03;6153008;23;20021;-80
2023/02/02 04:21:26;;;;;;;28.80;12.07;;;;;;;0.31;66.71;99042.00;6154185;23;20018;-80
2023/02/02 04:23:53;;;;;;;26.77;11.25;;;;;;;0.11;65.87;99018.59;6128224;23;20022;-82
2023/02/02 04:26:19;;;;;;;30.50;12.68;;;;;;;-0.21;66.11;98970.16;6152440;23;20018;-79
2023/02/02 04:28:46;;;;;;;27.05;12.13;;;;;;;0.24;66.91;99027.34;6152781;23;20021;-78
2023/02/02 04:31:12;;;;;;;30.17;12.73;;;;;;;0.19;66.55;99004.22;6127434;23;20014;-79
2023/02/02 04:33:38;;;;;;;27.33;11.38;;;;;;;0.31;66.71;99020.69;6151947;23;20025;-78
2023/02/02 04:36:05;;;;;;;26.00;11.50;;;;;;;0.29;66.55;99013.84;6139978;23;20022;-78
2023/02/02 04:38:31;;;;;;;27.33;11.32;;;;;;;0.40;66.04;99036.19;6152156;23;20002;-79
2023/02/02 04:40:57;;;;;;;28.23;12.90;;;;;;;0.29;66.51;99013.84;6174216;23;20022;-80
2023/02/02 04:43:23;;;;;;;27.15;11.27;;;;;;;0.31;65.78;99023.25;6147589;23;20009;-79
2023/02/02 04:45:56;;;;;;;24.40;11.18;;;;;;;0.02;65.40;99011.56;6164782;23;20022;-80
2023/02/02 04:48:22;;;;;;;23.50;10.93;;;;;;;-0.04;66.09;99003.78;6140390;23;20073;-79
2023/02/02 04:50:48;;;;;;;25.00;10.27;;;;;;;0.13;66.27;99033.13;6168671;23;20018;-78
2023/02/02 04:53:14;;;;;;;27.38;11.30;;;;;;;0.01;65.80;99026.88;6146597;23;20065;-78
2023/02/02 04:55:40;;;;;;;25.35;10.10;;;;;;;0.10;66.53;99040.72;6130669;23;20029;-78
2023/02/02 04:58:07;;;;;;;22.63;10.63;;;;;;;-0.09;65.96;99021.56;6106041;23;20018;-80
2023/02/02 05:00:33;;;;;;;23.25;10.73;;;;;;;-0.02;66.01;99023.44;6157202;23;20042;-79
2023/02/02 05:03:00;;;;;;;25.23;10.63;;;;;;;-0.26;65.92;99012.66;6132727;23;20022;-80
2023/02/02 05:05:26;;;;;;;27.23;10.70;;;;;;;-0.12;65.94;99031.75;6112341;23;20354;-80
2023/02/02 05:07:52;;;;;;;27.52;10.82;;;;;;;-0.12;65.50;99039.41;6145285;23;20014;-79
2023/02/02 05:10:18;;;;;;;23.70;10.32;;;;;;;0.02;66.04;99054.19;6163809;23;20022;-80
2023/02/02 05:12:44;;;;;;;25.48;10.40;;;;;;;-0.26;65.55;99026.31;6154107;23;20364;-79
2023/02/02 05:15:10;;;;;;;23.73;10.52;;;;;;;-0.03;66.55;99051.53;6130848;23;20021;-79
2023/02/02 05:17:36;;;;;;;25.08;10.18;;;;;;;-0.22;65.28;99025.53;6131619;23;20014;-80
2023/02/02 05:20:02;;;;;;;24.38;10.32;;;;;;;-0.21;65.73;99041.75;6107923;23;20096;-80
2023/02/02 05:22:29;;;;;;;25.55;10.93;;;;;;;-0.07;66.07;99050.59;6130832;23;20021;-78
2023/02/02 05:24:55;;;;;;;25.05;11.05;;;;;;;-0.10;65.68;99062.47;6106595;23;20037;-79
2023/02/02 05:27:21;;;;;;;24.67;11.43;;;;;;;-0.05;65.98;99059.16;6153994;23;20096;-78
2023/02/02 05:29:47;;;;;;;24.92;10.40;;;;;;;0.02;66.17;99054.19;6132020;23;20021;-79
2023/02/02 05:32:13;;;;;;;20.05;9.68;;;;;;;-0.01;65.63;99066.09;6155963;23;20089;-79
2023/02/02 05:34:39;;;;;;;24.48;10.52;;;;;;;-0.18;65.79;99040.13;6153891;23;20022;-77
2023/02/02 05:37:05;;;;;;;24.45;10.77;;;;;;;-0.11;65.58;99048.78;6130419;23;20240;-80
2023/02/02 05:39:31;;;;;;;22.10;9.45;;;;;;;-0.05;65.58;99063.44;6132429;23;20017;-80
2023/02/02 05:41:57;;;;;;;24.25;9.68;;;;;;;-0.21;65.96;99046.88;6130727;23;20018;-79
2023/02/02 05:44:23;;;;;;;22.75;9.40;;;;;;;-0.07;65.47;99058.25;6133025;23;20021;-78
2023/02/02 05:46:52;;;;;;;22.23;9.77;;;;;;;-0.32;65.84;99033.84;6133591;23;20024;-80
2023/02/02 05:49:18;;;;;;;22.90;9.52;;;;;;;-0.13;66.03;99045.38;6132595;23;20459;-79
2023/02/02 05:51:47;;;;;;;20.55;9.40;;;;;;;-0.13;65.86;99014.66;6155581;23;20010;-79
2023/02/02 05:54:19;;;;;;;18.83;8.43;;;;;;;0.21;65.26;99061.44;6135232;23;20021;-79
2023/02/02 05:57:03;;;;;;;19.88;9.15;;;;;;;-0.22;65.48;98981.22;6110264;23;20107;-79
2023/02/02 05:59:39;;;;;;;21.13;9.45;;;;;;;-0.94;65.27;98900.41;6135456;23;20010;-81
2023/02/02 06:02:26;;;;;;;19.63;8.93;;;;;;;-1.10;65.17;98883.84;6162560;23;20029;-80
2023/02/02 06:05:10;;;;;;;23.73;9.68;;;;;;;0.19;65.81;99069.91;6148730;23;20048;-81
2023/02/02 06:07:45;;;;;;;22.02;9.23;;;;;;;-1.09;65.40;98857.50;6178417;23;20021;-81
2023/02/02 06:10:11;;;;;;;24.35;9.50;;;;;;;-0.37;64.36;99010.75;6164072;23;20025;-79
2023/02/02 06:12:58;;;;;;;20.08;8.93;;;;;;;-0.26;65.06;99007.53;6158192;23;20029;-79
2023/02/02 06:15:33;;;;;;;20.27;9.23;;;;;;;-0.47;64.63;98986.66;6130605;23;20077;-81
2023/02/02 06:18:03;;;;;;;17.70;8.43;;;;;;;-0.70;65.36;98962.28;6156068;23;20274;-80
2023/02/02 06:20:57;;;;;;;23.48;9.57;;;;;;;0.23;65.40;99066.56;6157042;23;20024;-81
2023/02/02 06:23:47;;;;;;;22.85;9.63;;;;;;;0.06;65.25;99061.97;6123806;23;20506;-79
2023/02/02 06:26:27;;;;;;;19.42;9.18;;;;;;;0.12;65.11;99045.88;6129815;23;20091;-79
2023/02/02 06:29:04;;;;;;;22.50;9.63;;;;;;;-0.57;64.25;98953.19;6129177;23;20018;-80
2023/02/02 06:32:19;;;;;;;20.77;9.05;;;;;;;-0.15;64.47;99018.88;6133915;23;20017;-81
2023/02/02 06:34:54;;;;;;;19.17;8.55;;;;;;;-0.31;64.75;98964.81;6128141;23;20459;-79
2023/02/02 06:37:21;;;;;;;22.67;9.27;;;;;;;0.28;63.62;99062.41;6158565;23;20466;-79
2023/02/02 06:39:50;;;;;;;21.80;9.63;;;;;;;0.39;65.29;99078.88;6133793;23;20068;-80
2023/02/02 06:42:29;;;;;;;17.20;8.27;;;;;;;0.19;64.84;99009.34;6160579;23;20366;-82
2023/02/02 06:45:14;;;;;;;17.58;8.35;;;;;;;0.41;64.51;99046.50;6143387;23;20458;-79
2023/02/02 06:48:15;;;;;;;23.20;9.73;;;;;;;0.11;64.15;99022.00;6140621;23;20022;-80
2023/02/02 06:54:43;;;;;;;19.88;9.77;;;;;;;0.43;64.33;99064.44;6147752;23;20025;-78
2023/02/02 06:57:09;;;;;;;21.40;9.93;;;;;;;0.90;64.44;99073.84;6154595;23;20001;-79
2023/02/02 06:59:35;;;;;;;17.63;8.30;;;;;;;1.42;64.65;99091.00;6168076;23;20037;-79
2023/02/02 07:02:01;;;;;;;19.65;9.25;;;;;;;1.59;64.46;99107.53;6164880;23;20021;-80
2023/02/02 07:04:27;;;;;;;20.10;9.32;;;;;;;1.46;63.16;99100.47;6136322;23;20044;-80
2023/02/02 07:06:53;;;;;;;22.10;10.45;;;;;;;1.38;63.11;99092.66;6134612;23;20018;-79
2023/02/02 07:09:19;;;;;;;22.48;9.68;;;;;;;1.10;62.65;99060.56;6135621;23;20017;-78
2023/02/02 07:11:45;;;;;;;19.33;9.35;;;;;;;1.39;62.75;99091.81;6162727;23;20010;-79
2023/02/02 07:14:11;;;;;;;20.65;9.23;;;;;;;1.69;64.10;99103.41;6163821;23;20056;-79
2023/02/02 07:16:38;;;;;;;20.98;9.77;;;;;;;1.70;63.16;99082.03;6162215;23;20519;-79
2023/02/02 07:19:04;;;;;;;18.75;8.57;;;;;;;1.56;62.50;99078.41;6136325;23;20041;-79
2023/02/02 07:21:36;;;;;;;22.02;10.07;;;;;;;1.64;62.49;99105.06;6137640;23;20021;-78
2023/02/02 07:24:04;;;;;;;20.27;9.60;;;;;;;1.57;62.73;99080.97;6116101;23;20084;-79
2023/02/02 07:26:30;;;;;;;20.65;9.68;;;;;;;1.57;62.36;99070.72;6140760;23;20021;-79
2023/02/02 07:28:56;;;;;;;19.48;9.65;;;;;;;2.02;62.76;99078.22;6140031;23;20062;-80
2023/02/02 07:31:25;;;;;;;21.35;10.10;;;;;;;2.15;61.88;99064.75;6179367;23;20021;-78
2023/02/02 07:33:52;;;;;;;18.75;8.73;;;;;;;2.27;62.12;99074.31;6183883;23;20005;-78
2023/02/02 07:36:20;;;;;;;23.27;10.43;;;;;;;2.09;61.86;99093.75;6168778;23;20068;-79
2023/02/02 07:38:47;;;;;;;20.23;10.00;;;;;;;2.00;62.43;99072.22;6143624;23;20124;-78
2023/02/02 07:41:15;;;;;;;23.50;10.52;;;;;;;1.78;61.92;99062.50;6140871;23;20022;-79
2023/02/02 07:43:55;;;;;;;20.23;9.35;;;;;;;1.80;61.72;99107.00;6165467;23;20096;-80
2023/02/02 07:46:22;;;;;;;21.75;10.10;;;;;;;1.69;61.22;99116.22;6114248;23;20021;-80
2023/02/02 07:48:54;;;;;;;23.77;10.68;;;;;;;1.19;60.70;99061.59;6138000;23;20027;-79
2023/02/02 07:51:23;;;;;;;22.80;10.25;;;;;;;1.46;61.49;99110.75;6138165;23;20104;-79
2023/02/02 07:53:54;;;;;;;23.90;10.00;;;;;;;1.39;61.95;99091.81;6165061;23;20017;-79
2023/02/02 07:56:32;;;;;;;21.15;9.63;;;;;;;1.53;61.50;99117.69;6133612;23;20038;-80
2023/02/02 07:58:59;;;;;;;25.38;10.73;;;;;;;0.87;61.45;99018.31;6136234;23;20021;-80
2023/02/02 08:01:29;;;;;;;24.02;10.63;;;;;;;1.56;61.71;99120.28;6122222;23;20021;-80
2023/02/02 08:04:02;;;;;;;21.13;10.05;;;;;;;1.68;61.68;99109.38;6150874;23;20022;-81
2023/02/02 08:06:37;;;;;;;25.52;10.68;;;;;;;0.94;61.17;98991.09;6148026;23;20018;-78
2023/02/02 08:09:06;;;;;;;20.75;9.77;;;;;;;1.79;61.30;99128.38;6150020;23;20073;-79
2023/02/02 08:11:34;;;;;;;25.25;11.38;;;;;;;1.64;61.28;99099.94;6171523;23;20017;-80
2023/02/02 08:14:01;;;;;;;21.90;10.20;;;;;;;1.56;61.74;99098.94;6172643;23;20018;-79
2023/02/02 08:16:31;;;;;;;22.77;10.15;;;;;;;1.57;61.08;99101.50;6138097;23;20045;-80
2023/02/02 08:19:00;;;;;;;21.48;9.85;;;;;;;1.67;61.42;99120.47;6115597;23;20018;-79
2023/02/02 08:21:26;;;;;;;24.90;11.00;;;;;;;1.65;61.72;99130.72;6162437;23;20069;-80
2023/02/02 08:23:53;;;;;;;27.67;10.88;;;;;;;1.53;60.85;99115.13;6162098;23;20017;-79
2023/02/02 08:26:25;;;;;;;26.23;10.52;;;;;;;1.57;61.71;99134.00;6154321;23;20025;-79
2023/02/02 08:29:16;;;;;;;;;;;;;;;;;;;;;
2023/02/02 08:31:46;;;;;;;22.42;10.38;;;;;;;1.29;61.57;99034.41;6193080;23;20013;-79
2023/02/02 08:34:13;;;;;;;24.02;10.63;;;;;;;1.77;61.35;99113.78;6192016;23;20012;-79
2023/02/02 08:37:00;;;;;;;24.55;10.32;;;;;;;1.68;61.50;99085.44;6166514;23;20016;-79
2023/02/02 08:39:26;;;;;;;23.95;9.93;;;;;;;2.03;60.95;99106.50;6165337;23;20020;-79
2023/02/02 08:41:57;;;;;;;21.50;10.10;;;;;;;2.01;60.53;99097.91;6139422;23;20021;-79
2023/02/02 08:44:59;;;;;;;23.63;10.38;;;;;;;1.94;60.57;99107.22;6164169;23;20017;-82
2023/02/02 08:47:32;;;;;;;22.42;10.35;;;;;;;2.01;60.46;99105.63;6143965;23;20056;-81
2023/02/02 08:50:06;;;;;;;21.70;10.23;;;;;;;1.65;60.31;99014.44;6175153;23;20107;-81
2023/02/02 08:53:36;;;;;;;20.73;9.70;;;;;;;2.37;59.87;99098.41;6175531;23;20013;-81
2023/02/02 08:56:19;;;;;;;20.40;9.57;;;;;;;1.84;59.82;98973.66;6195946;23;20096;-80
2023/02/02 08:59:03;;;;;;;22.60;10.13;;;;;;;1.98;59.30;99041.41;6206341;23;20056;-80
2023/02/02 09:01:54;;;;;;;20.63;10.15;;;;;;;2.47;60.10;99125.06;6200707;23;20122;-80
2023/02/02 09:04:24;;;;;;;22.77;10.15;;;;;;;2.39;58.88;99065.91;6141306;23;20021;-80
2023/02/02 09:06:55;;;;;;;20.15;10.23;;;;;;;3.01;58.94;99088.00;6140575;23;20021;-80
2023/02/02 09:09:51;;;;;;;21.10;9.82;;;;;;;3.47;58.53;99090.16;6187701;23;20016;-78
2023/02/02 09:12:30;;;;;;;21.83;10.30;;;;;;;4.18;58.47;98998.81;6106452;23;20569;-80
2023/02/02 09:15:29;;;;;;;18.45;9.75;;;;;;;4.44;57.98;98897.53;6131586;23;20022;-79
2023/02/02 09:24:26;;;;;;;20.90;10.20;;;;;;;4.64;54.58;98978.31;6101535;23;20013;-81
2023/02/02 09:27:01;;;;;;;25.98;11.05;;;;;;;3.88;54.31;98944.59;6129937;23;20029;-80
2023/02/02 09:29:31;;;;;;;19.42;9.85;;;;;;;3.66;54.39;98925.63;6105114;23;20419;-80
2023/02/02 09:31:57;;;;;;;19.80;10.23;;;;;;;4.37;55.00;99065.00;6158377;23;20547;-80
2023/02/02 09:34:38;;;;;;;21.83;10.63;;;;;;;3.88;54.18;99010.66;6131033;23;20017;-80
2023/02/02 09:37:26;;;;;;;18.98;10.13;;;;;;;2.64;53.75;98882.09;6118902;23;20102;-80
2023/02/02 09:40:01;;;;;;;22.40;11.27;;;;;;;3.97;54.53;99094.81;6116918;23;20017;-80
2023/02/02 09:42:52;;;;;;;21.08;10.95;;;;;;;3.60;53.65;99103.13;6154881;23;20028;-79
2023/02/02 09:45:54;;;;;;;20.55;10.63;;;;;;;2.38;53.35;98984.56;6204740;23;20086;-80
2023/02/02 09:52:33;;;;;;;22.45;10.60;;;;;;;2.85;54.79;99068.13;6189202;23;20022;-80
2023/02/02 09:55:18;;;;;;;19.83;10.43;;;;;;;2.22;54.76;98989.50;6137742;23;20021;-79
2023/02/02 09:58:10;;;;;;;25.90;11.18;;;;;;;2.38;54.60;99015.38;6138248;23;20451;-80
2023/02/02 10:01:14;;;;;;;16.63;9.05;;;;;;;1.22;53.70;98867.66;6116761;23;20263;-81
2023/02/02 10:04:10;;;;;;;19.42;9.35;;;;;;;2.85;54.76;99092.13;6139113;23;20016;-80
2023/02/02 10:06:49;;;;;;;18.33;8.98;;;;;;;2.71;54.46;99070.53;6192948;23;20021;-80
2023/02/02 10:09:43;;;;;;;18.90;9.57;;;;;;;2.81;54.51;99089.50;6198035;23;20060;-79
2023/02/02 10:12:34;;;;;;;18.58;8.77;;;;;;;2.92;55.10;99085.34;6195708;23;20017;-80
2023/02/02 10:15:21;;;;;;;20.02;9.25;;;;;;;2.93;54.00;99094.78;6155134;23;20043;-80
2023/02/02 10:17:53;;;;;;;21.50;9.48;;;;;;;2.83;55.08;99092.94;6181346;23;20021;-81
2023/02/02 10:20:40;;;;;;;17.38;8.68;;;;;;;2.74;53.90;99083.44;6156275;23;19997;-81
2023/02/02 10:23:48;;;;;;;17.08;8.68;;;;;;;2.76;53.79;99091.19;6204884;23;20021;-81
2023/02/02 10:26:55;;;;;;;19.25;9.10;;;;;;;2.67;54.83;99079.94;6184719;23;20033;-80
2023/02/02 10:29:56;;;;;;;21.35;9.35;;;;;;;2.82;54.34;99086.97;6172392;23;20024;-81
2023/02/02 10:32:52;;;;;;;19.55;9.65;;;;;;;2.86;54.73;99075.00;6142782;23;20056;-81
2023/02/02 10:35:37;;;;;;;19.90;9.68;;;;;;;2.86;54.37;99080.13;6190306;23;20100;-78
2023/02/02 10:38:24;;;;;;;18.65;9.23;;;;;;;2.83;54.09;99087.81;6162591;23;20020;-81
2023/02/02 10:41:18;;;;;;;22.10;9.02;;;;;;;2.86;54.21;99073.31;6167944;23;20056;-81
2023/02/02 10:44:15;;;;;;;21.58;9.20;;;;;;;2.91;54.40;99068.19;6202688;23;20021;-82
2023/02/02 10:46:48;;;;;;;20.20;9.27;;;;;;;2.40;53.94;98978.59;6163704;23;20016;-79
2023/02/02 10:50:04;;;;;;;;;;;;;;;;;;;;;
2023/02/02 10:52:44;;;;;;;18.67;9.07;;;;;;;2.17;53.43;98960.38;6078043;23;20022;-80
2023/02/02 10:55:30;;;;;;;19.13;9.18;;;;;;;2.67;53.43;99067.09;6075815;23;20022;-79
2023/02/02 10:58:26;;;;;;;20.88;9.82;;;;;;;2.71;53.36;99089.41;6114478;23;20050;-80
2023/02/02 11:01:06;;;;;;;20.63;9.73;;;;;;;2.70;54.00;99079.97;6142078;23;20072;-80
2023/02/02 11:07:19;;;;;;;20.40;10.30;;;;;;;2.40;54.19;99024.81;6165951;23;20013;-81
2023/02/02 11:10:11;;;;;;;20.77;10.27;;;;;;;2.72;54.56;99087.69;6174024;23;20721;-81
2023/02/02 11:13:07;;;;;;;22.48;10.05;;;;;;;2.85;53.63;99068.13;6143582;23;20009;-80
2023/02/02 11:15:41;;;;;;;20.90;9.98;;;;;;;1.89;54.44;98895.88;6164808;23;20017;-78
2023/02/02 11:18:30;;;;;;;22.88;10.50;;;;;;;3.14;54.29;99058.13;6164152;23;20021;-79
2023/02/02 11:21:53;;;;;;;23.40;10.20;;;;;;;2.00;54.02;98882.31;6117957;23;20012;-79
2023/02/02 11:24:44;;;;;;;20.75;9.95;;;;;;;2.63;53.83;98993.38;6145903;23;20021;-79
2023/02/02 11:27:17;;;;;;;22.33;10.02;;;;;;;2.70;53.74;99071.38;6142545;23;20033;-79
2023/02/02 11:29:52;;;;;;;24.02;11.05;;;;;;;2.80;54.05;99077.50;6138010;23;20041;-79
2023/02/02 11:32:31;;;;;;;21.63;10.20;;;;;;;2.40;54.52;99006.84;6114031;23;20032;-81
2023/02/02 11:35:20;;;;;;;20.73;9.98;;;;;;;2.90;53.79;99071.63;6112219;23;20463;-81
2023/02/02 11:37:55;;;;;;;22.17;10.93;;;;;;;2.86;54.03;99091.28;6129868;23;20018;-80
2023/02/02 11:40:37;;;;;;;22.75;9.82;;;;;;;2.79;53.95;99098.88;6129654;23;20021;-81
2023/02/02 11:43:39;;;;;;;22.15;10.00;;;;;;;2.59;53.96;99106.38;6131144;23;20474;-81
2023/02/02 11:46:37;;;;;;;20.60;9.77;;;;;;;1.88;53.00;98988.22;6160256;23;20018;-81
2023/02/02 11:49:45;;;;;;;24.73;10.45;;;;;;;2.50;53.76;99130.25;6123557;23;20084;-81
2023/02/02 11:52:26;;;;;;;22.08;10.05;;;;;;;1.90;54.74;99056.69;6124721;23;20068;-80
2023/02/02 11:55:07;;;;;;;22.45;9.82;;;;;;;2.34;54.60;99121.47;6146392;23;20072;-81
2023/02/02 11:57:33;;;;;;;21.27;10.00;;;;;;;2.34;54.36;99124.03;6083445;23;20022;-82
2023/02/02 12:00:15;;;;;;;23.25;11.20;;;;;;;1.85;54.62;99032.66;6084785;23;20017;-82
2023/02/02 12:02:49;;;;;;;23.27;10.30;;;;;;;2.30;54.61;99110.31;6107548;23;20024;-81
2023/02/02 12:05:22;;;;;;;24.10;11.55;;;;;;;2.30;55.17;99099.16;6130718;23;20017;-81
2023/02/02 12:07:57;;;;;;;22.25;9.73;;;;;;;1.36;54.29;98953.31;6106496;23;20021;-81
2023/02/02 12:11:11;;;;;;;24.20;10.43;;;;;;;1.74;53.93;99071.00;6106628;23;20022;-80
2023/02/02 12:14:49;;;;;;;27.30;11.23;;;;;;;0.56;55.30;98901.66;6040400;23;20027;-82
2023/02/02 12:17:40;;;;;;;25.00;11.00;;;;;;;0.97;54.76;98978.34;6039717;23;20485;-81
2023/02/02 12:20:36;;;;;;;20.95;9.82;;;;;;;1.83;55.32;99113.03;6043971;23;20381;-81
2023/02/02 12:23:29;;;;;;;25.73;11.57;;;;;;;2.02;55.88;99107.34;6042989;23;20027;-83
2023/02/02 12:26:39;;;;;;;28.23;10.45;;;;;;;1.48;55.33;98994.53;6016277;23;20023;-79
2023/02/02 12:29:33;;;;;;;24.17;10.98;;;;;;;1.98;55.06;99090.16;6024233;23;20023;-81
2023/02/02 12:32:40;;;;;;;22.35;10.40;;;;;;;2.21;55.81;99105.88;6062528;23;20019;-80
2023/02/02 12:35:20;;;;;;;22.70;10.15;;;;;;;2.16;55.13;99107.53;6176594;23;20024;-80
2023/02/02 12:38:19;;;;;;;25.60;11.43;;;;;;;2.06;54.66;99109.13;6143473;23;20019;-79
2023/02/02 12:41:13;;;;;;;27.15;11.55;;;;;;;1.73;55.31;99035.91;6152158;23;20060;-78